Time;durP1;ratioP1;P1;durP2;ratioP2;P2;SDS_P1;SDS_P2;PMS_P1;PMS_P2;Temp;Humidity;BMP_temperature;BMP_pressure;BME280_temperature;BME280_humidity;BME280_pressure;Samples;Min_cycle;Max_cycle;Signal;HPM_P1;HPM_P2
2022/04/26 03:37:39;;;;;;;3.72;1.83;;;20.50;43.80;;;;;;5052177;28;20144;-62
2022/04/26 03:40:05;;;;;;;2.63;1.40;;;20.50;43.80;;;;;;5034205;28;20540;-62
2022/04/26 03:42:31;;;;;;;2.60;1.50;;;20.50;43.80;;;;;;5033973;28;20040;-63
2022/04/26 03:44:56;;;;;;;2.08;1.63;;;20.50;43.80;;;;;;5035436;28;20040;-64
2022/04/26 03:47:22;;;;;;;2.03;1.60;;;20.50;43.80;;;;;;5033929;28;20148;-61
2022/04/26 03:49:47;;;;;;;2.08;1.58;;;20.50;43.80;;;;;;5033683;28;20073;-64
2022/04/26 03:52:13;;;;;;;1.92;1.80;;;20.50;43.80;;;;;;5038543;28;20045;-63
2022/04/26 03:54:38;;;;;;;2.58;1.80;;;20.50;43.80;;;;;;5034355;28;20033;-61
2022/04/26 03:57:05;;;;;;;2.22;1.60;;;20.40;43.80;;;;;;5018420;28;20041;-65
2022/04/26 03:59:31;;;;;;;1.75;1.58;;;20.40;43.80;;;;;;5034420;28;20033;-64
2022/04/26 04:01:56;;;;;;;2.47;1.77;;;20.40;43.80;;;;;;5030763;28;20029;-62
2022/04/26 04:04:22;;;;;;;3.17;1.85;;;20.40;43.80;;;;;;5030004;28;20045;-62
2022/04/26 04:06:48;;;;;;;2.83;1.60;;;20.40;43.80;;;;;;5048155;28;20045;-62
2022/04/26 04:09:13;;;;;;;2.90;1.73;;;20.40;43.90;;;;;;5035752;28;20417;-63
2022/04/26 04:11:39;;;;;;;3.03;1.90;;;20.40;43.90;;;;;;5033904;28;20043;-62
2022/04/26 04:14:04;;;;;;;6.82;1.90;;;20.40;44.00;;;;;;5031905;28;20029;-61
2022/04/26 04:16:30;;;;;;;2.42;1.70;;;20.40;44.00;;;;;;5049159;28;20039;-61
2022/04/26 04:21:39;;;;;;;1.63;1.48;;;20.40;44.00;;;;;;5044326;28;20052;-62
2022/04/26 04:24:05;;;;;;;2.88;1.70;;;20.40;44.00;;;;;;5033882;28;20037;-62
2022/04/26 04:26:31;;;;;;;1.92;1.50;;;20.30;43.90;;;;;;5037246;28;20045;-62
2022/04/26 04:28:57;;;;;;;3.50;1.75;;;20.40;44.00;;;;;;5031063;28;20527;-62
2022/04/26 04:31:22;;;;;;;3.13;1.63;;;20.30;43.90;;;;;;5035343;28;20042;-62
2022/04/26 04:33:48;;;;;;;3.67;1.88;;;20.40;44.00;;;;;;5033474;28;20278;-62
2022/04/26 04:36:15;;;;;;;3.38;1.70;;;20.40;44.00;;;;;;5033011;28;20049;-62
2022/04/26 04:38:41;;;;;;;2.72;1.67;;;20.30;44.00;;;;;;5019929;28;20073;-63
2022/04/26 04:41:07;;;;;;;3.60;1.67;;;20.30;44.00;;;;;;5034314;28;20534;-62
2022/04/26 04:43:32;;;;;;;3.65;1.90;;;20.30;44.00;;;;;;5046319;28;20042;-62
2022/04/26 04:45:58;;;;;;;4.53;1.90;;;20.30;44.00;;;;;;5034203;28;20048;-62
2022/04/26 04:48:23;;;;;;;2.90;1.70;;;20.30;44.00;;;;;;5049179;28;20041;-61
2022/04/26 04:50:49;;;;;;;3.83;1.70;;;20.30;44.00;;;;;;5035766;28;20397;-61
2022/04/26 04:53:20;;;;;;;3.25;1.77;;;20.30;44.10;;;;;;5035351;28;20041;-62
2022/04/26 04:55:46;;;;;;;3.22;1.80;;;20.30;44.00;;;;;;5035114;28;20037;-60
2022/04/26 04:58:11;;;;;;;3.03;1.92;;;20.30;44.10;;;;;;5034669;28;20051;-61
2022/04/26 05:00:37;;;;;;;2.83;1.67;;;20.30;44.80;;;;;;5033904;28;20087;-64
2022/04/26 05:03:03;;;;;;;2.60;1.80;;;20.30;44.10;;;;;;5032757;28;20418;-61
2022/04/26 05:05:29;;;;;;;2.60;1.85;;;20.20;44.00;;;;;;5031288;28;20044;-63
2022/04/26 05:07:55;;;;;;;3.58;1.98;;;20.20;44.10;;;;;;5034390;28;20423;-62
2022/04/26 05:10:20;;;;;;;3.65;2.28;;;20.20;44.10;;;;;;5034279;28;20049;-61
2022/04/26 05:12:46;;;;;;;4.28;1.75;;;20.20;44.10;;;;;;5034767;28;20041;-61
2022/04/26 05:15:12;;;;;;;3.67;2.10;;;20.20;44.10;;;;;;5033511;28;20070;-62
2022/04/26 05:17:38;;;;;;;3.58;1.80;;;20.20;44.10;;;;;;5016949;28;20033;-60
2022/04/26 05:20:08;;;;;;;4.25;1.92;;;20.20;44.10;;;;;;5032301;28;20037;-62
2022/04/26 05:24:53;;;;;;;3.35;1.70;;;20.20;44.10;;;;;;5040738;28;20091;-62
2022/04/26 05:25:20;;;;;;;3.15;1.60;;;20.20;44.10;;;;;;5033303;28;20041;-63
2022/04/26 05:27:45;;;;;;;3.60;2.00;;;20.20;44.10;;;;;;5035439;28;20413;-61
2022/04/26 05:30:12;;;;;;;3.13;2.17;;;20.10;44.00;;;;;;5032920;28;20056;-61
2022/04/26 05:32:38;;;;;;;3.22;1.77;;;20.20;44.10;;;;;;5031459;28;20065;-62
2022/04/26 05:35:05;;;;;;;3.33;2.00;;;20.20;44.10;;;;;;5032396;28;20108;-61
2022/04/26 05:37:31;;;;;;;4.38;2.10;;;20.20;44.10;;;;;;5033577;28;20424;-63
2022/04/26 05:39:59;;;;;;;3.45;1.85;;;20.20;44.10;;;;;;5033468;28;20041;-63
2022/04/26 05:42:25;;;;;;;5.70;1.70;;;20.20;44.10;;;;;;5032493;28;20060;-61
2022/04/26 05:44:51;;;;;;;3.65;1.88;;;20.20;44.10;;;;;;5032909;28;20492;-61
2022/04/26 05:47:16;;;;;;;4.57;2.17;;;20.10;44.00;;;;;;5032595;28;20086;-63
2022/04/26 05:49:42;;;;;;;2.95;1.77;;;20.10;44.00;;;;;;5031847;28;20177;-61
2022/04/26 05:52:07;;;;;;;4.07;1.95;;;20.20;44.10;;;;;;5019158;28;20746;-63
2022/04/26 05:54:33;;;;;;;3.72;1.98;;;20.20;44.00;;;;;;5033177;28;20176;-62
2022/04/26 05:56:58;;;;;;;4.22;1.70;;;20.10;44.00;;;;;;5034123;28;20041;-62
2022/04/26 05:59:24;;;;;;;4.30;1.75;;;20.10;44.00;;;;;;5032882;28;20124;-61
2022/04/26 06:01:51;;;;;;;3.75;2.10;;;20.10;44.00;;;;;;5034282;28;20083;-63
2022/04/26 06:04:17;;;;;;;4.75;1.85;;;20.10;44.00;;;;;;5032661;28;20068;-61
2022/04/26 06:06:43;;;;;;;2.85;1.90;;;20.10;44.00;;;;;;5048410;28;20090;-64
2022/04/26 06:09:08;;;;;;;3.50;1.67;;;20.10;43.90;;;;;;5035086;28;20041;-61
2022/04/26 06:11:34;;;;;;;3.03;1.55;;;20.10;43.90;;;;;;5033924;28;20034;-61
2022/04/26 06:14:04;;;;;;;3.35;1.65;;;20.10;43.90;;;;;;5032167;28;20750;-61
2022/04/26 06:16:29;;;;;;;2.40;1.75;;;20.20;44.20;;;;;;5046738;28;20046;-64
2022/04/26 06:18:55;;;;;;;2.38;1.75;;;20.20;44.20;;;;;;5041348;28;20048;-65
2022/04/26 06:21:20;;;;;;;3.72;1.70;;;20.20;44.60;;;;;;5025019;28;20349;-64
2022/04/26 06:23:46;;;;;;;4.28;1.92;;;20.20;44.70;;;;;;5027990;28;20445;-64
2022/04/26 06:26:12;;;;;;;2.25;1.80;;;20.20;45.00;;;;;;5033377;28;20251;-62
2022/04/26 06:28:38;;;;;;;3.67;2.10;;;20.20;44.90;;;;;;5031311;28;20633;-63
2022/04/26 06:31:03;;;;;;;3.70;1.42;;;20.20;45.10;;;;;;5046510;28;20041;-63
2022/04/26 06:33:29;;;;;;;4.15;2.03;;;20.20;45.00;;;;;;5023775;28;20083;-62
2022/04/26 06:35:54;;;;;;;7.88;1.90;;;20.20;45.00;;;;;;5033461;28;20040;-63
2022/04/26 06:38:22;;;;;;;3.75;1.73;;;20.20;45.10;;;;;;5032499;28;20056;-62
2022/04/26 06:40:48;;;;;;;2.85;1.85;;;20.20;45.40;;;;;;5032879;28;20047;-61
2022/04/26 06:43:14;;;;;;;3.42;1.98;;;20.30;45.20;;;;;;5033091;28;20049;-62
2022/04/26 06:45:40;;;;;;;3.35;1.80;;;20.30;45.40;;;;;;5036164;28;20122;-61
2022/04/26 06:48:09;;;;;;;2.63;1.70;;;20.30;45.10;;;;;;5032060;28;20431;-61
2022/04/26 06:50:35;;;;;;;5.63;2.17;;;20.30;45.20;;;;;;5049341;28;20045;-61
2022/04/26 06:53:01;;;;;;;4.82;1.80;;;20.30;45.30;;;;;;5040158;28;20048;-62
2022/04/26 06:55:27;;;;;;;4.40;1.70;;;20.40;45.20;;;;;;5030725;28;20049;-62
2022/04/26 06:57:52;;;;;;;4.95;1.73;;;20.40;45.30;;;;;;5031159;28;20127;-62
2022/04/26 07:00:18;;;;;;;3.63;1.70;;;20.40;45.40;;;;;;5030320;28;20168;-64
2022/04/26 07:02:43;;;;;;;3.78;1.88;;;20.40;45.50;;;;;;5047371;28;20115;-62
2022/04/26 07:05:11;;;;;;;3.75;1.70;;;20.40;46.10;;;;;;5035102;28;20048;-62
2022/04/26 07:07:38;;;;;;;5.38;1.85;;;20.40;45.30;;;;;;5034282;28;20452;-62
2022/04/26 07:10:04;;;;;;;3.75;1.70;;;20.50;45.30;;;;;;5031606;28;20077;-63
2022/04/26 07:12:30;;;;;;;2.20;1.70;;;20.50;45.40;;;;;;5048393;28;20056;-61
2022/04/26 07:14:55;;;;;;;2.67;1.77;;;20.50;45.40;;;;;;5051567;28;20536;-62
2022/04/26 07:17:21;;;;;;;3.17;1.90;;;20.50;45.40;;;;;;5036912;28;20052;-60
2022/04/26 07:19:46;;;;;;;3.58;1.80;;;20.50;45.30;;;;;;5032741;28;20517;-61
2022/04/26 07:22:12;;;;;;;2.30;1.73;;;20.50;45.40;;;;;;5032734;28;20048;-64
2022/04/26 07:24:37;;;;;;;4.68;2.00;;;20.50;45.20;;;;;;5036145;28;20052;-63
2022/04/26 07:27:03;;;;;;;3.17;1.80;;;20.50;45.00;;;;;;5034802;28;20052;-61
2022/04/26 07:29:29;;;;;;;3.67;2.05;;;20.50;45.00;;;;;;5030582;28;20509;-62
2022/04/26 07:31:55;;;;;;;4.63;1.90;;;20.50;44.80;;;;;;5030649;28;20099;-62
2022/04/26 07:34:21;;;;;;;3.88;1.70;;;20.50;44.90;;;;;;5030707;28;20438;-61
2022/04/26 07:36:48;;;;;;;3.40;1.70;;;20.50;45.00;;;;;;5024770;28;20084;-63
2022/04/26 07:39:17;;;;;;;2.35;1.40;;;20.50;45.80;;;;;;5030184;28;20037;-64
2022/04/26 07:41:44;;;;;;;6.30;2.33;;;20.50;45.20;;;;;;5030329;28;20041;-62
2022/04/26 07:44:09;;;;;;;4.28;1.80;;;20.50;45.20;;;;;;5030074;28;20120;-62
2022/04/26 07:46:36;;;;;;;5.03;1.98;;;20.50;45.20;;;;;;5033302;28;20037;-62
2022/04/26 07:49:03;;;;;;;3.60;1.80;;;20.50;45.90;;;;;;5030314;28;20037;-63
2022/04/26 07:51:30;;;;;;;4.72;1.63;;;20.50;45.10;;;;;;5034755;28;20167;-61
2022/04/26 07:53:56;;;;;;;4.13;1.95;;;20.50;44.90;;;;;;5035803;28;20102;-61
2022/04/26 07:56:22;;;;;;;6.63;2.17;;;20.50;45.00;;;;;;5018117;28;20041;-61
2022/04/26 07:58:47;;;;;;;5.15;2.10;;;20.50;45.00;;;;;;5036315;28;20382;-62
2022/04/26 08:01:13;;;;;;;3.38;2.05;;;20.50;45.00;;;;;;5036486;28;20637;-62
2022/04/26 08:03:38;;;;;;;4.00;1.80;;;20.50;45.10;;;;;;5036049;28;20647;-61
2022/04/26 08:06:04;;;;;;;7.03;2.60;;;20.50;45.10;;;;;;5037675;28;20434;-63
2022/04/26 08:08:29;;;;;;;4.75;2.20;;;20.50;45.00;;;;;;5050658;28;20389;-61
2022/04/26 08:10:55;;;;;;;3.60;1.88;;;20.50;44.90;;;;;;5036522;28;20124;-62
2022/04/26 08:13:21;;;;;;;3.50;2.28;;;20.60;45.00;;;;;;5035466;28;20509;-63
2022/04/26 08:15:47;;;;;;;4.78;1.77;;;20.50;45.30;;;;;;5035650;28;20164;-63
2022/04/26 08:18:12;;;;;;;6.22;2.08;;;20.60;45.40;;;;;;5036912;28;20115;-62
2022/04/26 08:20:38;;;;;;;4.82;1.92;;;20.60;45.20;;;;;;5037808;28;20468;-64
2022/04/26 08:23:06;;;;;;;3.28;1.70;;;20.60;45.10;;;;;;5035338;28;20450;-61
2022/04/26 08:28:19;;;;;;;6.30;1.85;;;20.60;45.20;;;;;;5032627;28;20292;-62
2022/04/26 08:30:45;;;;;;;8.25;1.90;;;20.60;46.00;;;;;;5033291;28;20044;-62
2022/04/26 08:33:10;;;;;;;5.53;2.00;;;20.60;45.40;;;;;;5051535;28;20520;-61
2022/04/26 08:35:36;;;;;;;3.30;1.80;;;20.60;45.40;;;;;;5047994;28;20131;-62
2022/04/26 08:38:01;;;;;;;8.57;1.70;;;20.60;45.30;;;;;;5051423;28;20094;-60
2022/04/26 08:40:27;;;;;;;4.50;1.65;;;20.60;45.20;;;;;;5033812;28;20132;-61
2022/04/26 08:42:53;;;;;;;2.50;1.80;;;20.60;45.00;;;;;;5031795;28;20033;-63
2022/04/26 08:45:20;;;;;;;4.82;1.80;;;20.60;44.90;;;;;;5035448;28;20063;-62
2022/04/26 08:53:19;;;;;;;4.50;1.70;;;20.60;44.20;;;;;;5050512;28;20060;-63
2022/04/26 08:55:47;;;;;;;4.38;2.03;;;20.50;44.00;;;;;;5032785;28;20468;-61
2022/04/26 08:58:14;;;;;;;5.90;2.05;;;20.60;43.70;;;;;;5030280;28;20067;-63
2022/04/26 09:01:00;;;;;;;4.45;1.90;;;20.60;43.70;;;;;;5033272;28;20049;-62
2022/04/26 09:03:30;;;;;;;6.03;1.98;;;20.60;43.50;;;;;;5031682;28;20124;-62
2022/04/26 09:06:04;;;;;;;2.90;1.80;;;20.60;43.70;;;;;;5034404;28;20032;-62
2022/04/26 09:08:30;;;;;;;3.28;1.83;;;20.60;43.70;;;;;;5034691;28;20314;-62
2022/04/26 09:10:55;;;;;;;4.53;1.83;;;20.60;43.70;;;;;;5023455;28;20124;-63
2022/04/26 09:13:23;;;;;;;2.42;1.67;;;20.60;43.70;;;;;;5034466;28;20037;-62
2022/04/26 09:15:55;;;;;;;4.43;1.88;;;20.60;43.70;;;;;;5018561;28;20045;-62
2022/04/26 09:18:27;;;;;;;4.30;1.70;;;20.60;43.80;;;;;;5032290;28;20401;-62
2022/04/26 09:20:55;;;;;;;3.88;1.85;;;20.70;44.00;;;;;;5018215;28;20064;-63
2022/04/26 09:23:26;;;;;;;4.32;1.70;;;20.70;43.80;;;;;;5033814;28;20080;-62
2022/04/26 09:26:09;;;;;;;4.50;1.80;;;20.70;43.90;;;;;;5034134;28;20076;-64
2022/04/26 09:28:47;;;;;;;2.45;1.60;;;20.70;43.90;;;;;;5035541;28;20409;-64
2022/04/26 09:31:22;;;;;;;2.60;1.42;;;20.70;44.00;;;;;;5034620;28;20090;-61
2022/04/26 09:33:53;;;;;;;5.68;1.70;;;20.70;44.00;;;;;;5050081;28;20053;-62
2022/04/26 09:36:19;;;;;;;;;;;20.70;44.00;;;;;;5035693;28;20360;-62
2022/04/26 09:38:55;;;;;;;4.05;1.90;;;20.70;44.10;;;;;;5032570;28;19981;-64
2022/04/26 09:41:21;;;;;;;4.90;1.63;;;20.70;44.20;;;;;;5033509;28;20515;-62
2022/04/26 09:44:07;;;;;;;2.90;1.50;;;20.70;44.30;;;;;;5031814;28;20091;-61
2022/04/26 09:46:49;;;;;;;2.90;1.70;;;20.80;44.40;;;;;;5032864;28;20076;-63
2022/04/26 09:49:21;;;;;;;4.05;1.40;;;20.80;45.10;;;;;;5033962;28;20048;-64
2022/04/26 09:51:51;;;;;;;7.90;1.67;;;20.80;44.50;;;;;;5018698;28;20049;-61
2022/04/26 09:54:17;;;;;;;3.28;1.92;;;20.80;44.60;;;;;;5031436;28;20037;-62
2022/04/26 09:56:47;;;;;;;4.32;1.85;;;20.80;44.60;;;;;;5033953;28;20038;-64
2022/04/26 09:59:15;;;;;;;5.13;1.83;;;20.80;44.70;;;;;;5047368;28;20041;-62
2022/04/26 10:01:48;;;;;;;3.63;1.80;;;20.80;44.70;;;;;;5026962;28;20048;-62
2022/04/26 10:04:20;;;;;;;3.35;1.77;;;20.80;44.80;;;;;;5027996;28;20045;-63
2022/04/26 10:06:49;;;;;;;2.70;1.70;;;20.80;44.80;;;;;;5035425;28;20409;-63
2022/04/26 10:09:15;;;;;;;4.53;2.00;;;20.80;44.80;;;;;;5028663;28;20044;-61
2022/04/26 10:11:41;;;;;;;4.38;1.75;;;20.80;44.90;;;;;;5031086;28;20073;-62
2022/04/26 10:14:08;;;;;;;2.17;1.23;;;20.80;44.80;;;;;;5045559;28;20087;-61
2022/04/26 10:16:35;;;;;;;2.60;1.50;;;20.80;44.70;;;;;;5030998;28;20045;-63
2022/04/26 10:19:06;;;;;;;2.78;1.60;;;20.80;45.00;;;;;;5033946;28;21795;-62
2022/04/26 10:21:35;;;;;;;5.78;2.25;;;20.80;44.80;;;;;;5045457;28;20045;-61
2022/04/26 10:24:04;;;;;;;3.95;2.00;;;20.80;45.10;;;;;;5050607;28;20552;-63
2022/04/26 10:26:31;;;;;;;6.28;2.38;;;20.80;45.00;;;;;;5031445;28;20046;-61
2022/04/26 10:29:02;;;;;;;6.47;2.13;;;20.80;45.30;;;;;;5034543;28;20896;-62
2022/04/26 10:31:38;;;;;;;5.10;2.13;;;20.80;45.60;;;;;;5031655;28;20064;-61
2022/04/26 10:34:25;;;;;;;4.95;2.15;;;20.80;45.70;;;;;;5033172;28;20041;-60
2022/04/26 10:37:13;;;;;;;2.67;1.80;;;20.80;45.70;;;;;;5032911;28;20637;-61
2022/04/26 10:39:39;;;;;;;3.35;1.83;;;20.80;45.70;;;;;;5030751;28;20094;-62
2022/04/26 10:42:14;;;;;;;5.15;1.77;;;20.80;45.60;;;;;;5032509;28;20037;-61
2022/04/26 10:44:40;;;;;;;3.80;2.20;;;20.80;45.70;;;;;;5034040;28;20500;-62
2022/04/26 10:47:07;;;;;;;5.18;1.80;;;20.80;45.50;;;;;;5031520;28;20131;-63
2022/04/26 10:49:32;;;;;;;5.47;2.40;;;20.80;45.60;;;;;;5046641;28;20048;-61
2022/04/26 10:52:18;;;;;;;5.18;2.53;;;20.80;45.60;;;;;;5024097;28;20045;-63
2022/04/26 10:54:58;;;;;;;4.53;2.00;;;20.80;45.80;;;;;;5027778;28;20497;-62
2022/04/26 10:57:31;;;;;;;3.30;1.80;;;20.80;45.80;;;;;;5025058;28;20053;-61
2022/04/26 11:00:02;;;;;;;3.25;1.63;;;20.80;45.80;;;;;;5030227;28;20049;-63
2022/04/26 11:02:28;;;;;;;;;;;20.80;45.80;;;;;;5027415;28;20104;-62
2022/04/26 11:05:08;;;;;;;5.88;2.00;;;20.80;45.80;;;;;;5036180;28;19921;-62
2022/04/26 11:07:35;;;;;;;2.97;1.58;;;20.80;45.80;;;;;;5045876;28;20045;-62
2022/04/26 11:10:04;;;;;;;5.97;1.77;;;20.80;45.70;;;;;;5046511;28;20497;-60
2022/04/26 11:12:33;;;;;;;5.30;2.08;;;20.80;45.50;;;;;;5032502;28;20048;-62
2022/04/26 11:15:01;;;;;;;4.78;1.75;;;20.80;45.40;;;;;;5027491;28;20077;-61
2022/04/26 11:17:29;;;;;;;4.13;1.88;;;20.80;45.50;;;;;;5030865;28;20124;-61
2022/04/26 11:20:18;;;;;;;4.95;2.00;;;20.80;45.50;;;;;;5031728;28;20425;-62
2022/04/26 11:22:53;;;;;;;4.32;1.60;;;20.80;45.40;;;;;;5023723;28;20045;-61
2022/04/26 11:28:08;;;;;;;4.72;2.05;;;20.80;45.40;;;;;;5036575;28;20143;-62
2022/04/26 11:30:44;;;;;;;3.25;1.75;;;20.80;45.50;;;;;;5030037;28;20370;-62
2022/04/26 11:33:24;;;;;;;5.03;1.88;;;20.80;45.40;;;;;;5037747;28;20172;-62
2022/04/26 11:35:57;;;;;;;5.07;1.90;;;20.80;45.50;;;;;;5038004;28;20114;-64
2022/04/26 11:38:24;;;;;;;5.90;1.85;;;20.80;45.50;;;;;;5036831;28;20128;-63
2022/04/26 11:40:51;;;;;;;5.65;1.80;;;20.80;45.40;;;;;;5049877;28;20041;-62
2022/04/26 11:43:19;;;;;;;4.68;2.10;;;20.80;45.40;;;;;;5037163;28;20052;-63
2022/04/26 11:45:47;;;;;;;4.55;1.75;;;20.80;45.10;;;;;;5037532;28;20037;-61
2022/04/26 11:48:25;;;;;;;2.00;1.50;;;20.80;45.00;;;;;;5052741;28;20052;-61
2022/04/26 11:50:53;;;;;;;9.10;2.15;;;20.80;44.60;;;;;;5033643;28;20390;-61
2022/04/26 11:53:21;;;;;;;4.90;1.80;;;20.80;44.80;;;;;;5035650;28;20048;-60
2022/04/26 11:55:53;;;;;;;2.75;1.48;;;20.80;45.50;;;;;;5037047;28;20045;-62
2022/04/26 11:58:23;;;;;;;2.95;1.75;;;20.80;44.70;;;;;;5035286;28;20044;-64
2022/04/26 12:00:53;;;;;;;5.50;1.65;;;20.80;44.90;;;;;;5032313;28;20389;-61
2022/04/26 12:03:20;;;;;;;2.05;1.42;;;20.80;44.30;;;;;;5031267;28;20076;-62
2022/04/26 12:05:49;;;;;;;3.75;1.88;;;20.80;43.80;;;;;;5035501;28;20396;-61
2022/04/26 12:08:15;;;;;;;3.33;1.70;;;20.80;43.50;;;;;;5031252;28;20036;-63
2022/04/26 12:10:42;;;;;;;3.72;1.80;;;20.80;44.00;;;;;;5035872;28;20028;-61
2022/04/26 12:13:07;;;;;;;1.90;1.60;;;20.80;43.50;;;;;;5033176;28;20128;-61
2022/04/26 12:15:38;;;;;;;2.80;1.45;;;20.80;43.60;;;;;;5032754;28;20035;-63
2022/04/26 12:18:14;;;;;;;2.70;1.58;;;20.80;43.50;;;;;;5036058;28;20137;-63
2022/04/26 12:20:58;;;;;;;2.38;1.50;;;20.80;43.10;;;;;;5031788;28;20636;-62
2022/04/26 12:23:24;;;;;;;1.55;1.30;;;20.80;42.90;;;;;;5047444;28;20042;-65
2022/04/26 12:26:00;;;;;;;4.15;1.70;;;20.80;42.50;;;;;;5033195;28;20048;-62
2022/04/26 12:28:25;;;;;;;3.45;1.60;;;20.80;41.40;;;;;;5032096;28;20421;-63
2022/04/26 12:30:51;;;;;;;3.65;1.55;;;20.80;41.00;;;;;;5036349;28;20033;-64
2022/04/26 12:33:32;;;;;;;3.00;1.60;;;20.70;41.00;;;;;;5034021;28;20107;-65
2022/04/26 12:36:05;;;;;;;3.22;2.10;;;20.80;40.70;;;;;;5032377;28;20053;-63
2022/04/26 12:38:46;;;;;;;2.40;1.55;;;20.70;40.90;;;;;;5033052;28;20490;-62
2022/04/26 12:41:12;;;;;;;2.22;1.55;;;20.70;41.20;;;;;;5034792;28;20044;-64
2022/04/26 12:43:38;;;;;;;3.22;1.80;;;20.70;41.10;;;;;;5032664;28;20037;-62
2022/04/26 12:46:06;;;;;;;4.55;1.88;;;20.70;40.90;;;;;;5048514;28;20105;-61
2022/04/26 12:51:22;;;;;;;3.20;2.35;;;20.70;40.90;;;;;;5032762;28;20092;-60
2022/04/26 12:53:49;;;;;;;;;;;20.70;40.90;;;;;;5049375;28;20037;-62
2022/04/26 12:56:15;;;;;;;2.90;1.77;;;20.70;40.60;;;;;;5034162;28;19917;-62
2022/04/26 12:58:45;;;;;;;2.63;2.13;;;20.70;41.20;;;;;;5036071;28;20457;-60
2022/04/26 13:01:12;;;;;;;2.35;1.88;;;20.70;41.40;;;;;;5035993;28;20127;-60
2022/04/26 13:03:39;;;;;;;4.03;2.30;;;20.70;41.40;;;;;;5034510;28;20893;-61
2022/04/26 13:06:12;;;;;;;2.65;2.20;;;20.70;41.50;;;;;;5036430;28;20045;-61
2022/04/26 13:08:46;;;;;;;3.83;2.10;;;20.70;41.50;;;;;;5035347;28;20726;-61
2022/04/26 13:11:14;;;;;;;3.22;2.13;;;20.70;41.10;;;;;;5035499;28;20041;-62
2022/04/26 13:13:40;;;;;;;3.55;2.28;;;20.70;41.10;;;;;;5036645;28;20037;-62
2022/04/26 13:16:06;;;;;;;3.35;2.15;;;20.70;41.10;;;;;;5036958;28;20039;-62
2022/04/26 13:18:32;;;;;;;2.75;2.30;;;20.70;41.00;;;;;;5034714;28;20045;-64
2022/04/26 13:20:59;;;;;;;2.58;2.38;;;20.70;41.10;;;;;;5036613;28;20437;-64
2022/04/26 13:23:25;;;;;;;3.75;2.38;;;20.70;40.70;;;;;;5034934;28;20040;-65
2022/04/26 13:25:52;;;;;;;3.60;2.38;;;20.70;40.70;;;;;;5036868;28;20037;-62
2022/04/26 13:28:18;;;;;;;4.85;2.17;;;20.70;40.70;;;;;;5037365;28;20053;-63
2022/04/26 13:30:44;;;;;;;1.95;1.70;;;20.70;40.30;;;;;;5033714;28;20049;-62
2022/04/26 13:33:10;;;;;;;4.45;2.47;;;20.70;40.00;;;;;;5035318;28;20393;-61
2022/04/26 13:35:37;;;;;;;3.05;2.05;;;20.70;39.80;;;;;;5034045;28;20485;-64
2022/04/26 13:38:14;;;;;;;3.42;1.98;;;20.80;39.70;;;;;;5034288;28;20049;-62
2022/04/26 13:40:41;;;;;;;3.20;2.08;;;20.70;39.60;;;;;;5035545;28;20032;-64
2022/04/26 13:43:08;;;;;;;2.78;1.90;;;20.70;39.60;;;;;;5032867;28;20172;-62
2022/04/26 13:45:35;;;;;;;2.47;1.85;;;20.70;39.70;;;;;;5032513;28;20095;-62
2022/04/26 13:48:07;;;;;;;5.30;1.85;;;20.80;39.70;;;;;;5032804;28;20397;-62
2022/04/26 13:50:33;;;;;;;2.72;2.10;;;20.70;39.70;;;;;;5041768;28;20446;-62
2022/04/26 13:52:59;;;;;;;2.38;1.90;;;20.70;39.80;;;;;;5031754;28;20157;-63
2022/04/26 13:55:26;;;;;;;2.92;2.00;;;20.80;39.80;;;;;;5047966;28;20119;-62
2022/04/26 13:57:54;;;;;;;2.45;2.20;;;20.70;39.70;;;;;;5033511;28;20152;-63
2022/04/26 14:00:19;;;;;;;2.47;2.10;;;20.80;39.70;;;;;;5032299;28;20041;-62
2022/04/26 14:02:46;;;;;;;2.58;1.95;;;20.70;39.70;;;;;;5035446;28;20059;-63
2022/04/26 14:05:15;;;;;;;4.45;2.08;;;20.70;39.50;;;;;;5034421;28;20048;-63
2022/04/26 14:07:42;;;;;;;3.28;1.75;;;20.70;39.30;;;;;;5032805;28;20584;-63
2022/04/26 14:10:08;;;;;;;4.55;1.90;;;20.70;39.40;;;;;;5035287;28;20063;-62
2022/04/26 14:12:35;;;;;;;3.80;1.90;;;20.70;40.00;;;;;;5029649;28;20071;-62
2022/04/26 14:23:12;;;;;;;3.25;1.80;;;20.70;38.50;;;;;;5048911;28;20417;-64
2022/04/26 14:25:38;;;;;;;3.53;1.70;;;20.80;38.10;;;;;;5031455;28;20037;-63
2022/04/26 14:28:04;;;;;;;2.15;1.60;;;20.80;38.00;;;;;;5031251;28;20041;-62
2022/04/26 14:30:30;;;;;;;3.15;1.80;;;20.80;37.80;;;;;;5015872;28;20052;-64
2022/04/26 14:32:55;;;;;;;3.83;2.40;;;20.80;37.70;;;;;;5032585;28;20061;-63
2022/04/26 14:35:21;;;;;;;3.20;2.00;;;20.80;37.60;;;;;;5029535;28;20685;-62
2022/04/26 14:37:48;;;;;;;4.40;1.85;;;20.80;37.60;;;;;;5033499;28;20501;-65
2022/04/26 14:40:14;;;;;;;4.07;1.88;;;20.80;37.40;;;;;;5035800;28;20120;-66
2022/04/26 14:42:45;;;;;;;3.47;1.73;;;20.80;37.30;;;;;;5031449;28;20139;-63
2022/04/26 14:45:10;;;;;;;3.20;1.50;;;20.80;37.10;;;;;;5033353;28;20520;-63
2022/04/26 14:47:36;;;;;;;2.90;2.10;;;20.80;37.00;;;;;;5048821;28;20041;-61
2022/04/26 14:50:02;;;;;;;3.50;1.95;;;20.70;36.70;;;;;;5031074;28;20478;-62
2022/04/26 14:52:28;;;;;;;3.63;1.98;;;20.80;36.80;;;;;;5031884;28;20087;-61
2022/04/26 14:54:55;;;;;;;2.88;1.83;;;20.80;36.60;;;;;;5034861;28;20049;-63
2022/04/26 14:57:21;;;;;;;2.75;1.65;;;20.80;36.40;;;;;;5029540;28;20033;-62
2022/04/26 14:59:47;;;;;;;4.15;2.10;;;20.80;36.40;;;;;;5032288;28;20043;-61
2022/04/26 15:02:17;;;;;;;3.05;1.65;;;20.80;36.30;;;;;;5037427;28;20128;-63
2022/04/26 15:04:44;;;;;;;4.63;1.90;;;20.80;36.50;;;;;;5038506;28;20060;-61
2022/04/26 15:07:10;;;;;;;16.42;2.45;;;20.90;36.60;;;;;;5036774;28;20114;-65
2022/04/26 15:09:52;;;;;;;4.10;1.85;;;20.90;36.60;;;;;;5036293;28;20041;-65
2022/04/26 15:17:48;;;;;;;6.95;2.10;;;20.70;36.00;;;;;;5036933;28;20456;-66
2022/04/26 15:20:15;;;;;;;3.40;2.03;;;20.60;36.30;;;;;;5037602;28;20490;-64
2022/04/26 15:22:41;;;;;;;5.70;2.75;;;20.60;37.00;;;;;;5036994;28;20045;-66
2022/04/26 15:25:09;;;;;;;2.80;2.08;;;20.70;37.80;;;;;;5037412;28;20041;-65
2022/04/26 15:31:18;;;;;;;5.65;3.00;;;20.90;39.40;;;;;;4997915;28;20894;-63
2022/04/26 15:33:45;;;;;;;6.88;2.80;;;21.10;37.50;;;;;;4986019;28;20414;-62
2022/04/26 15:36:10;;;;;;;7.20;3.03;;;21.10;36.50;;;;;;4952608;28;20057;-61
2022/04/26 15:38:37;;;;;;;7.65;3.03;;;21.10;36.20;;;;;;4953545;28;20051;-62
2022/04/26 15:41:05;;;;;;;5.50;3.20;;;21.10;36.10;;;;;;4955052;28;20043;-63
2022/04/26 15:43:32;;;;;;;3.90;2.53;;;21.00;36.10;;;;;;4951444;28;20047;-62
2022/04/26 15:45:57;;;;;;;4.75;2.53;;;21.10;36.20;;;;;;4952847;28;20811;-63
2022/04/26 15:48:24;;;;;;;3.90;2.45;;;21.00;36.10;;;;;;4965718;28;20047;-63
2022/04/26 15:50:50;;;;;;;6.18;2.28;;;21.00;35.90;;;;;;4982652;28;20047;-62
2022/04/26 15:53:15;;;;;;;3.15;1.90;;;21.00;35.80;;;;;;4964786;28;20043;-63
2022/04/26 15:55:41;;;;;;;3.60;2.13;;;21.00;35.80;;;;;;4946080;28;20043;-62
2022/04/26 15:58:08;;;;;;;6.53;2.30;;;21.00;35.80;;;;;;4949080;28;20051;-62
2022/04/26 16:00:34;;;;;;;3.30;2.15;;;21.00;37.00;;;;;;4943385;28;20451;-63
2022/04/26 16:02:59;;;;;;;3.22;2.33;;;21.10;37.40;;;;;;4950070;28;20047;-62
2022/04/26 16:05:25;;;;;;;4.00;2.00;;;21.00;37.50;;;;;;4981009;28;20359;-62
2022/04/26 16:07:51;;;;;;;2.58;1.98;;;21.10;37.20;;;;;;4947548;28;20047;-62
2022/04/26 16:21:14;;;;;;;3.28;2.10;;;21.10;37.30;;;;;;4979830;28;20106;-63
2022/04/26 16:23:40;;;;;;;4.10;2.20;;;21.10;37.20;;;;;;4947566;28;20338;-63
2022/04/26 16:26:07;;;;;;;3.00;2.00;;;21.10;37.10;;;;;;4950471;28;20070;-63
2022/04/26 16:28:36;;;;;;;5.85;2.10;;;21.10;37.10;;;;;;4950113;28;20078;-63
2022/04/26 16:31:06;;;;;;;2.88;1.85;;;21.10;37.00;;;;;;4950804;28;20077;-63
2022/04/26 16:33:33;;;;;;;3.00;2.17;;;21.10;37.20;;;;;;4949379;28;20133;-64
2022/04/26 16:35:59;;;;;;;4.35;2.22;;;21.10;37.30;;;;;;4950193;28;20494;-62
2022/04/26 16:38:25;;;;;;;3.75;2.10;;;21.10;36.90;;;;;;4948520;28;20069;-63
2022/04/26 16:40:50;;;;;;;2.53;2.05;;;21.10;36.70;;;;;;4945988;28;20051;-63
2022/04/26 16:43:17;;;;;;;5.05;1.90;;;21.10;36.60;;;;;;4937781;28;20051;-63
2022/04/26 16:45:43;;;;;;;3.65;2.08;;;21.10;36.50;;;;;;4938136;29;20159;-63
2022/04/26 16:48:09;;;;;;;4.63;1.90;;;21.10;36.50;;;;;;4938067;28;20054;-63
2022/04/26 16:50:34;;;;;;;3.15;1.73;;;21.10;36.30;;;;;;4945669;29;20974;-63
2022/04/26 16:53:00;;;;;;;5.45;2.08;;;21.10;36.40;;;;;;4935597;28;20070;-63
2022/04/26 16:55:27;;;;;;;3.70;1.70;;;21.10;36.50;;;;;;4934069;28;20154;-63
2022/04/26 16:57:53;;;;;;;3.28;2.17;;;21.10;36.80;;;;;;4923447;28;20051;-62
2022/04/26 17:00:19;;;;;;;6.60;2.10;;;21.10;36.90;;;;;;4940026;28;20039;-62
2022/04/26 17:02:45;;;;;;;5.07;2.00;;;21.10;36.90;;;;;;4939952;29;20157;-63
2022/04/26 17:05:13;;;;;;;3.20;1.95;;;21.10;36.80;;;;;;4938486;29;20074;-63
2022/04/26 17:07:39;;;;;;;4.35;2.15;;;21.10;36.70;;;;;;4937110;29;20048;-64
2022/04/26 17:10:06;;;;;;;6.15;2.00;;;21.10;37.00;;;;;;4937905;29;20054;-63
2022/04/26 17:12:33;;;;;;;4.18;2.05;;;21.10;37.70;;;;;;4937122;28;20051;-63